Etusivu
METAR-TAF:

METAR-TAF

Lentoasemat :

Grangeville, Idaho, Yhdysvallat

Leveyspiiri: 45-56-33N, Pituuspiiri: 116-07-24W, korkeus merenpinnasta: 1010 m

Tämänhetkinen sää

Tämä raportti tehtiin 24 minuuttia sitten, kello 10.15 UTC
Tuuli 13 kn lounaasta puuskistuen 20 kn:hen
Lämpötila -1°C
Kosteus 100%
Ilmanpaine 1019 hPa
Näkyvyys: 1.2 km
Hajonneita pilviä 600 ft:n korkeudessa
Pilvistä 1400 ft:n korkeudessa

METAR: KGIC 171015Z AUTO 23013G20KT 3/4SM BKN006 OVC014 M01/M01 A3009 RMK AO1

Aika: 02:39 (10:39 UTC)


TAF: puuttuu

Säähavainnot ja -ennusteet yli 4000 lentoasemalta (METAR- ja TAF-raportit).

Käytössä olevat sääasemat on merkitty karttaan keltaisilla ja punaisilla pisteillä.

Aseta hiiri pisteen päälle nähdäksesi sääaseman nimen.

Klikkaa sitten nähdäksesi säähavainnot ja -ennusteet.

Kartan vaihtaminen: klikkaa mustalla rastilla varustettuja vihreitä pisteitä, niin voit zoomata sisään; viivalla varustettua vihreää pistettä, niin voit zoomata ulos tai vihreitä nuolia, niin pääset viereisille kartoille.


METAR-TAF: